Time;durP1;ratioP1;P1;durP2;ratioP2;P2;SDS_P1;SDS_P2;PMS_P1;PMS_P2;Temp;Humidity;BMP_temperature;BMP_pressure;BME280_temperature;BME280_humidity;BME280_pressure;Samples;Min_cycle;Max_cycle;Signal;HPM_P1;HPM_P2
2022/09/03 00:00:33;;;;;;;7.35;6.85;;;22.90;62.70;;;;;;5104636;28;20189;-85
2022/09/03 00:03:10;;;;;;;7.80;7.20;;;22.70;63.80;;;;;;5096768;28;20281;-87
2022/09/03 00:05:56;;;;;;;7.10;6.60;;;22.60;65.00;;;;;;5097856;28;20198;-86
2022/09/03 00:08:59;;;;;;;6.95;6.45;;;22.50;66.30;;;;;;5091523;28;20235;-86
2022/09/03 00:11:39;;;;;;;6.80;6.30;;;22.50;65.20;;;;;;5097742;28;20214;-86
2022/09/03 00:14:17;;;;;;;6.03;5.43;;;22.50;64.50;;;;;;5099363;28;20206;-87
2022/09/03 00:16:54;;;;;;;5.30;5.00;;;22.60;63.90;;;;;;5101375;28;20268;-88
2022/09/03 00:19:25;;;;;;;5.93;5.53;;;22.50;65.30;;;;;;5096096;28;20187;-86
2022/09/03 00:22:03;;;;;;;6.10;5.47;;;22.60;64.20;;;;;;5103099;28;20206;-86
2022/09/03 00:24:34;;;;;;;6.43;5.82;;;22.70;63.60;;;;;;5101526;28;20212;-87
2022/09/03 00:27:05;;;;;;;5.25;4.85;;;22.70;63.80;;;;;;5099997;28;20186;-87
2022/09/03 00:29:49;;;;;;;5.13;4.82;;;22.70;64.40;;;;;;5105534;28;20194;-86
2022/09/03 00:32:25;;;;;;;5.35;4.93;;;22.70;63.70;;;;;;5101960;28;20202;-85
2022/09/03 00:34:56;;;;;;;5.20;4.72;;;22.70;63.70;;;;;;5091672;28;20605;-87
2022/09/03 00:37:22;;;;;;;5.25;4.85;;;22.70;63.90;;;;;;5097544;28;20194;-87
2022/09/03 00:39:48;;;;;;;4.95;4.65;;;22.70;64.00;;;;;;5102249;28;20183;-85
2022/09/03 00:42:32;;;;;;;5.80;5.20;;;22.70;63.60;;;;;;5107776;28;20800;-86
2022/09/03 00:45:08;;;;;;;5.60;5.20;;;22.70;64.80;;;;;;5090200;28;20185;-86
2022/09/03 00:47:56;;;;;;;5.93;5.47;;;22.60;65.10;;;;;;5104291;28;20200;-87
2022/09/03 00:50:39;;;;;;;5.95;5.40;;;22.50;65.00;;;;;;5098196;28;20186;-86
2022/09/03 00:53:31;;;;;;;5.05;4.75;;;22.50;65.60;;;;;;5098011;28;20731;-86
2022/09/03 00:56:12;;;;;;;12.30;5.20;;;22.50;65.10;;;;;;5094542;28;20174;-86
2022/09/03 00:59:12;;;;;;;9.02;5.10;;;22.50;64.60;;;;;;5099643;28;20186;-86
2022/09/03 01:01:48;;;;;;;7.18;4.60;;;22.50;64.50;;;;;;5095177;28;20689;-85
2022/09/03 01:04:23;;;;;;;5.30;4.97;;;22.50;63.30;;;;;;5095603;28;20266;-86
2022/09/03 01:07:25;;;;;;;5.78;5.38;;;22.60;63.20;;;;;;5093938;28;20574;-86
2022/09/03 01:10:13;;;;;;;4.60;4.30;;;22.50;64.00;;;;;;5085042;28;20664;-86
2022/09/03 01:12:57;;;;;;;5.45;4.95;;;22.50;62.00;;;;;;5093842;28;20214;-86
2022/09/03 01:15:45;;;;;;;5.47;5.07;;;22.50;63.70;;;;;;5096195;28;20202;-85
2022/09/03 01:18:44;;;;;;;4.78;4.38;;;22.30;65.50;;;;;;5094326;28;20538;-86
2022/09/03 01:21:21;;;;;;;5.75;4.57;;;22.00;66.70;;;;;;5096542;28;20220;-86
2022/09/03 01:23:56;;;;;;;4.78;4.47;;;21.80;67.20;;;;;;5093542;28;20209;-87
2022/09/03 01:26:51;;;;;;;5.25;4.75;;;21.90;66.80;;;;;;5099635;28;20666;-86
2022/09/03 01:29:41;;;;;;;4.72;4.30;;;21.80;67.40;;;;;;5096334;28;20545;-85
2022/09/03 01:32:18;;;;;;;4.63;4.20;;;21.80;67.20;;;;;;5099958;28;20198;-85
2022/09/03 01:35:00;;;;;;;4.32;4.05;;;21.80;66.50;;;;;;5102974;28;20189;-86
2022/09/03 01:37:37;;;;;;;4.45;4.15;;;21.90;66.80;;;;;;5098933;28;20171;-86
2022/09/03 01:40:06;;;;;;;6.22;4.32;;;21.90;67.20;;;;;;5092046;28;20179;-86
2022/09/03 01:43:01;;;;;;;4.45;4.15;;;21.80;67.10;;;;;;5092163;28;20230;-86
2022/09/03 01:45:43;;;;;;;4.70;4.40;;;21.90;68.10;;;;;;5100923;28;20269;-86
2022/09/03 01:48:12;;;;;;;5.75;4.60;;;21.90;67.20;;;;;;5097882;28;20704;-84
2022/09/03 01:50:58;;;;;;;4.70;4.40;;;21.80;66.70;;;;;;5108056;28;20178;-86
2022/09/03 01:54:10;;;;;;;4.47;4.18;;;22.00;66.50;;;;;;5096070;28;20208;-85
2022/09/03 01:56:56;;;;;;;4.68;4.25;;;22.00;66.50;;;;;;5100878;28;20170;-86
2022/09/03 01:59:30;;;;;;;4.50;4.10;;;22.00;66.70;;;;;;5067212;28;20191;-87
2022/09/03 02:02:05;;;;;;;4.80;4.35;;;22.00;66.90;;;;;;5097615;28;20206;-86
2022/09/03 02:04:30;;;;;;;4.80;4.47;;;22.00;66.60;;;;;;5099689;28;20269;-86
2022/09/03 02:07:00;;;;;;;4.75;4.35;;;22.00;67.70;;;;;;5103606;28;20220;-88
2022/09/03 02:09:26;;;;;;;4.57;4.28;;;22.00;67.20;;;;;;5099856;28;20565;-86
2022/09/03 02:12:02;;;;;;;5.25;4.40;;;21.90;68.60;;;;;;5102287;28;20221;-86
2022/09/03 02:14:29;;;;;;;4.95;4.65;;;21.80;68.70;;;;;;5097820;28;20215;-87
2022/09/03 02:16:58;;;;;;;4.22;3.92;;;21.80;68.30;;;;;;5105072;28;20239;-87
2022/09/03 02:19:26;;;;;;;4.68;4.38;;;21.80;68.50;;;;;;5101063;28;20174;-87
2022/09/03 02:21:54;;;;;;;4.70;4.40;;;21.90;68.40;;;;;;5110230;28;20206;-86
2022/09/03 02:24:20;;;;;;;5.82;5.00;;;21.90;68.90;;;;;;5116943;27;20573;-87
2022/09/03 02:26:46;;;;;;;5.07;4.68;;;21.80;68.60;;;;;;5105355;28;20223;-87
2022/09/03 02:29:13;;;;;;;6.22;5.38;;;21.80;68.20;;;;;;5101971;28;20250;-87
2022/09/03 02:31:39;;;;;;;6.18;5.25;;;21.90;69.20;;;;;;5096434;28;20207;-87
2022/09/03 02:34:05;;;;;;;5.50;5.10;;;21.90;69.30;;;;;;5104983;28;20215;-86
2022/09/03 02:36:44;;;;;;;4.88;4.57;;;21.80;69.50;;;;;;5107676;28;20183;-86
2022/09/03 02:39:11;;;;;;;5.60;5.00;;;21.70;70.10;;;;;;5103456;28;20213;-86
2022/09/03 02:41:37;;;;;;;5.43;4.95;;;21.70;70.60;;;;;;5103799;28;20193;-86
2022/09/03 02:44:15;;;;;;;4.55;4.25;;;21.80;70.40;;;;;;5097823;28;20611;-86
2022/09/03 02:46:52;;;;;;;4.63;4.22;;;21.80;70.50;;;;;;5096127;28;20183;-86
2022/09/03 02:49:18;;;;;;;4.70;4.40;;;21.70;70.70;;;;;;5101429;28;20282;-87
2022/09/03 02:51:44;;;;;;;4.70;4.30;;;21.70;71.00;;;;;;5095703;28;20238;-87
2022/09/03 02:54:11;;;;;;;4.75;4.40;;;21.60;71.60;;;;;;5097259;28;20219;-87
2022/09/03 02:56:37;;;;;;;4.75;4.35;;;21.60;71.60;;;;;;5105866;28;20274;-86
2022/09/03 02:59:04;;;;;;;4.57;4.28;;;21.50;71.90;;;;;;5102304;28;20194;-84
2022/09/03 03:01:30;;;;;;;4.75;4.35;;;21.60;71.30;;;;;;5102122;28;20210;-86
2022/09/03 03:03:56;;;;;;;5.00;4.60;;;21.50;72.90;;;;;;5102914;28;20507;-86
2022/09/03 03:06:22;;;;;;;4.15;3.85;;;21.50;73.00;;;;;;5104629;28;20222;-85
2022/09/03 03:08:49;;;;;;;4.65;4.07;;;21.50;72.50;;;;;;5107362;27;20213;-84
2022/09/03 03:11:17;;;;;;;4.15;3.90;;;21.50;72.60;;;;;;5103870;28;20218;-87
2022/09/03 03:13:44;;;;;;;4.47;4.18;;;21.60;71.50;;;;;;5112862;28;20211;-87
2022/09/03 03:16:10;;;;;;;5.05;4.50;;;21.60;72.10;;;;;;5105903;28;20203;-86
2022/09/03 03:18:36;;;;;;;6.00;4.28;;;21.60;72.10;;;;;;5105698;28;20432;-86
2022/09/03 03:21:07;;;;;;;4.40;4.10;;;21.50;74.10;;;;;;5104786;28;20270;-85
2022/09/03 03:23:34;;;;;;;4.40;4.10;;;21.40;73.80;;;;;;5110426;28;20182;-86
2022/09/03 03:26:04;;;;;;;4.65;4.10;;;21.40;73.60;;;;;;5104115;28;20183;-87
2022/09/03 03:28:33;;;;;;;5.00;3.95;;;21.40;73.70;;;;;;5099186;28;20191;-86
2022/09/03 03:31:19;;;;;;;4.90;4.40;;;21.40;73.60;;;;;;5110276;28;20206;-86
2022/09/03 03:34:00;;;;;;;4.53;4.22;;;21.60;73.10;;;;;;5102852;28;20209;-86
2022/09/03 03:36:29;;;;;;;4.60;4.20;;;21.60;72.90;;;;;;5104843;28;20191;-86
2022/09/03 03:38:56;;;;;;;4.28;3.97;;;21.60;73.50;;;;;;5112208;28;20291;-87
2022/09/03 03:41:34;;;;;;;4.50;4.10;;;21.60;75.00;;;;;;5099900;28;20261;-86
2022/09/03 03:44:02;;;;;;;4.20;4.00;;;21.30;76.60;;;;;;5102390;28;20186;-84
2022/09/03 03:46:37;;;;;;;4.90;4.15;;;21.30;77.40;;;;;;5102887;28;20186;-87
2022/09/03 03:49:05;;;;;;;4.38;3.97;;;21.20;78.60;;;;;;5106020;28;20181;-86
2022/09/03 03:51:31;;;;;;;4.70;4.40;;;21.20;78.10;;;;;;5097785;28;20283;-84
2022/09/03 03:53:58;;;;;;;4.75;4.40;;;21.30;78.30;;;;;;5097467;28;20226;-87
2022/09/03 03:56:25;;;;;;;4.60;4.30;;;21.40;77.50;;;;;;5107306;28;20183;-87
2022/09/03 03:58:52;;;;;;;4.25;3.95;;;21.40;77.10;;;;;;5103364;28;20223;-86
2022/09/03 04:01:21;;;;;;;5.35;4.85;;;21.40;76.30;;;;;;5104322;28;20275;-87
2022/09/03 04:03:46;;;;;;;5.68;5.25;;;21.30;77.20;;;;;;5097411;28;20401;-86
2022/09/03 04:06:15;;;;;;;5.53;5.05;;;21.10;78.50;;;;;;5107546;28;20186;-85
2022/09/03 04:08:42;;;;;;;4.75;4.45;;;21.00;79.20;;;;;;5105596;28;20217;-85
2022/09/03 04:11:10;;;;;;;5.70;5.15;;;21.00;75.00;;;;;;5108016;28;20213;-87
2022/09/03 04:13:39;;;;;;;4.78;4.47;;;21.00;75.10;;;;;;5102234;28;20202;-86
2022/09/03 04:16:05;;;;;;;5.07;4.70;;;21.10;74.10;;;;;;5108990;28;20199;-87
2022/09/03 04:18:31;;;;;;;5.82;4.25;;;21.00;73.10;;;;;;5105834;28;20190;-84
2022/09/03 04:21:03;;;;;;;4.90;4.50;;;20.90;73.30;;;;;;5106751;28;20203;-85
2022/09/03 04:23:33;;;;;;;5.05;4.65;;;20.90;73.30;;;;;;5099874;28;20727;-83
2022/09/03 04:25:59;;;;;;;5.15;4.85;;;20.90;73.90;;;;;;5089266;28;20508;-86
2022/09/03 04:28:25;;;;;;;5.60;5.10;;;20.80;73.10;;;;;;5112024;28;20756;-84
2022/09/03 04:30:51;;;;;;;5.15;4.80;;;20.60;74.50;;;;;;5105029;28;20286;-86
2022/09/03 04:33:16;;;;;;;5.38;5.05;;;20.50;75.00;;;;;;5100269;28;20209;-87
2022/09/03 04:35:43;;;;;;;4.93;4.53;;;20.50;75.80;;;;;;5108954;28;20189;-85
2022/09/03 04:38:08;;;;;;;5.78;4.70;;;20.60;75.60;;;;;;5100363;28;20189;-84
2022/09/03 04:40:34;;;;;;;5.00;4.57;;;20.80;76.20;;;;;;5106275;28;20183;-85
2022/09/03 04:43:00;;;;;;;5.10;4.60;;;21.00;75.90;;;;;;5101529;28;20210;-87
2022/09/03 04:45:27;;;;;;;4.88;4.57;;;21.00;75.90;;;;;;5104894;28;20558;-84
2022/09/03 04:48:00;;;;;;;5.88;4.75;;;21.10;74.90;;;;;;5105045;28;20646;-85
2022/09/03 04:50:29;;;;;;;4.97;4.50;;;21.20;74.20;;;;;;5102663;28;20205;-86
2022/09/03 04:53:01;;;;;;;5.22;4.72;;;21.10;73.90;;;;;;5103740;28;20252;-86
2022/09/03 04:55:27;;;;;;;5.38;4.85;;;21.20;73.00;;;;;;5108596;28;20186;-85
2022/09/03 04:57:53;;;;;;;5.18;4.70;;;21.20;75.30;;;;;;5112368;28;20194;-85
2022/09/03 05:00:19;;;;;;;5.40;5.00;;;21.20;75.30;;;;;;5105464;28;20186;-87
2022/09/03 05:02:50;;;;;;;5.72;5.22;;;21.10;74.80;;;;;;5104354;28;20273;-86
2022/09/03 05:05:16;;;;;;;5.03;4.70;;;21.00;75.40;;;;;;5105417;28;20257;-85
2022/09/03 05:07:43;;;;;;;5.22;4.82;;;20.90;76.80;;;;;;5107378;28;20232;-85
2022/09/03 05:10:15;;;;;;;5.82;5.43;;;20.90;77.50;;;;;;5113064;28;20187;-85
2022/09/03 05:12:41;;;;;;;5.55;5.05;;;20.90;76.60;;;;;;5106334;28;20289;-85
2022/09/03 05:15:07;;;;;;;4.50;4.20;;;20.80;78.90;;;;;;5101598;28;20221;-88
2022/09/03 05:17:33;;;;;;;5.20;4.72;;;20.90;80.70;;;;;;5100052;28;20247;-83
2022/09/03 05:19:58;;;;;;;5.25;4.75;;;21.00;80.20;;;;;;5106248;28;20182;-85
2022/09/03 05:22:24;;;;;;;4.85;4.47;;;21.10;77.80;;;;;;5107637;28;20206;-85
2022/09/03 05:24:50;;;;;;;4.85;4.50;;;21.10;79.90;;;;;;5105084;28;20198;-86
2022/09/03 05:27:16;;;;;;;4.78;4.38;;;21.10;81.30;;;;;;5096531;28;20191;-84
2022/09/03 05:29:44;;;;;;;4.72;4.35;;;21.00;81.40;;;;;;5092716;28;20206;-87
2022/09/03 05:32:16;;;;;;;5.30;4.80;;;21.00;82.00;;;;;;5107950;28;20380;-85
2022/09/03 05:34:42;;;;;;;4.65;4.25;;;21.00;83.90;;;;;;5105738;28;20211;-86
2022/09/03 05:37:08;;;;;;;5.68;5.28;;;20.90;83.30;;;;;;5110759;28;20690;-87
2022/09/03 05:39:34;;;;;;;6.40;4.63;;;20.80;84.80;;;;;;5111945;28;20182;-85
2022/09/03 05:42:00;;;;;;;5.80;5.30;;;20.60;87.40;;;;;;5108572;28;20239;-86
2022/09/03 05:44:25;;;;;;;5.53;4.97;;;20.40;87.50;;;;;;5093891;28;20207;-87
2022/09/03 05:46:51;;;;;;;4.82;4.53;;;20.50;86.90;;;;;;5108748;28;20193;-83
2022/09/03 05:49:17;;;;;;;5.50;5.10;;;20.50;84.90;;;;;;5108632;28;20265;-84
2022/09/03 05:51:43;;;;;;;5.63;5.22;;;20.60;85.10;;;;;;5113964;28;20233;-85
2022/09/03 05:54:09;;;;;;;6.38;5.88;;;20.70;85.60;;;;;;5110119;28;20197;-86
2022/09/03 05:56:38;;;;;;;4.97;4.57;;;20.70;86.20;;;;;;5090955;28;20184;-84
2022/09/03 05:59:08;;;;;;;5.70;5.35;;;20.70;86.60;;;;;;5077002;28;20222;-85
2022/09/03 06:01:42;;;;;;;5.63;5.13;;;20.70;87.50;;;;;;5087051;28;20696;-84
2022/09/03 06:04:11;;;;;;;5.20;4.80;;;20.80;88.20;;;;;;5114512;28;20723;-84
2022/09/03 06:06:39;;;;;;;5.35;4.75;;;20.80;86.50;;;;;;5107490;28;20347;-85
2022/09/03 06:09:17;;;;;;;5.47;5.00;;;21.00;84.90;;;;;;5116238;28;20297;-86
2022/09/03 06:11:43;;;;;;;5.85;5.35;;;21.10;86.20;;;;;;5106529;28;20212;-90
2022/09/03 06:14:11;;;;;;;5.85;5.45;;;21.10;85.00;;;;;;5105336;28;20218;-84
2022/09/03 06:16:41;;;;;;;6.00;5.50;;;21.20;83.90;;;;;;5104553;28;20188;-87
2022/09/03 06:19:09;;;;;;;5.10;4.70;;;21.20;81.90;;;;;;5104717;28;20186;-84
2022/09/03 06:21:41;;;;;;;5.45;5.05;;;21.00;82.60;;;;;;5084065;28;20583;-88
2022/09/03 06:24:11;;;;;;;5.35;4.95;;;21.00;82.40;;;;;;5096252;28;20537;-86
2022/09/03 06:26:37;;;;;;;5.97;5.10;;;21.10;83.00;;;;;;5106137;28;20233;-86
2022/09/03 06:29:03;;;;;;;6.10;5.53;;;21.00;84.70;;;;;;5089073;28;21150;-85
2022/09/03 06:31:29;;;;;;;5.70;5.18;;;20.70;87.10;;;;;;5089737;28;20226;-87
2022/09/03 06:33:55;;;;;;;5.97;5.13;;;20.70;88.10;;;;;;5083636;28;20201;-85
2022/09/03 06:36:22;;;;;;;6.00;5.43;;;20.60;88.70;;;;;;5098544;28;20183;-86
2022/09/03 06:38:51;;;;;;;5.40;5.00;;;20.70;87.90;;;;;;5116690;28;20186;-84
2022/09/03 06:41:19;;;;;;;5.88;5.47;;;20.90;86.70;;;;;;5101626;28;20207;-88
2022/09/03 06:43:46;;;;;;;6.18;5.68;;;20.90;88.00;;;;;;5125301;27;20197;-89
2022/09/03 06:46:17;;;;;;;5.60;5.10;;;20.70;89.40;;;;;;5093962;28;20597;-86
2022/09/03 06:48:44;;;;;;;5.65;5.22;;;20.50;90.30;;;;;;5106220;28;20214;-90
2022/09/03 06:51:13;;;;;;;5.40;5.00;;;20.70;91.00;;;;;;5111068;28;20299;-86
2022/09/03 06:53:41;;;;;;;6.10;5.38;;;20.80;90.20;;;;;;5106389;28;20210;-89
2022/09/03 06:56:09;;;;;;;5.40;5.00;;;20.90;90.80;;;;;;5107143;28;20182;-86
2022/09/03 06:58:43;;;;;;;6.65;6.10;;;20.90;92.90;;;;;;5101265;28;20178;-87
2022/09/03 07:01:17;;;;;;;8.35;5.88;;;20.70;92.90;;;;;;5102983;28;20246;-86
2022/09/03 07:03:45;;;;;;;6.43;5.82;;;20.60;95.10;;;;;;5111346;28;20189;-86
2022/09/03 07:06:16;;;;;;;6.82;6.22;;;20.60;94.80;;;;;;5106151;28;20194;-86
2022/09/03 07:08:42;;;;;;;6.65;5.50;;;20.50;95.20;;;;;;5106610;28;20203;-87
2022/09/03 07:11:12;;;;;;;5.70;5.20;;;20.40;94.30;;;;;;5103815;28;20649;-87
2022/09/03 07:13:40;;;;;;;5.68;5.28;;;20.50;94.10;;;;;;5104366;28;20217;-86
2022/09/03 07:16:09;;;;;;;6.38;5.78;;;20.60;94.10;;;;;;5120115;27;20212;-86
2022/09/03 07:18:35;;;;;;;6.07;5.47;;;20.60;95.00;;;;;;5107481;28;20183;-86
2022/09/03 07:21:03;;;;;;;6.68;6.07;;;20.50;95.80;;;;;;5105310;28;20224;-86
2022/09/03 07:23:30;;;;;;;6.20;5.60;;;20.40;96.70;;;;;;5104465;28;20194;-85
2022/09/03 07:25:58;;;;;;;6.20;5.80;;;20.30;96.30;;;;;;5109958;28;20189;-86
2022/09/03 07:28:25;;;;;;;6.30;5.80;;;20.20;98.50;;;;;;5110600;28;20182;-86
2022/09/03 07:30:52;;;;;;;6.43;6.00;;;20.20;97.80;;;;;;5104256;28;20283;-86
2022/09/03 07:33:18;;;;;;;7.07;6.53;;;20.20;96.70;;;;;;5110695;28;20772;-86
2022/09/03 07:35:44;;;;;;;6.60;6.10;;;20.20;97.80;;;;;;5109133;28;20175;-85
2022/09/03 07:38:10;;;;;;;6.45;5.95;;;20.30;97.40;;;;;;5111359;28;20302;-86
2022/09/03 07:40:38;;;;;;;6.75;6.22;;;20.30;96.50;;;;;;5121187;28;20176;-86
2022/09/03 07:43:04;;;;;;;6.85;6.22;;;20.30;95.60;;;;;;5108557;28;20257;-86
2022/09/03 07:45:32;;;;;;;7.10;6.60;;;20.30;95.60;;;;;;5105714;28;20210;-86
2022/09/03 07:47:58;;;;;;;6.60;6.05;;;20.30;95.40;;;;;;5109480;27;20193;-86
2022/09/03 07:50:23;;;;;;;7.07;6.47;;;20.30;95.20;;;;;;5110584;28;20716;-86
2022/09/03 07:52:54;;;;;;;7.10;6.50;;;20.30;95.10;;;;;;5106375;28;20296;-85
2022/09/03 07:55:20;;;;;;;7.03;6.53;;;20.20;96.20;;;;;;5109847;28;20210;-86
2022/09/03 07:57:45;;;;;;;7.15;6.57;;;20.00;97.30;;;;;;5106830;28;20545;-86
2022/09/03 08:00:12;;;;;;;6.53;6.05;;;19.70;98.00;;;;;;5098058;28;20192;-87
2022/09/03 08:02:37;;;;;;;7.97;6.35;;;19.80;96.90;;;;;;5107457;28;20199;-87
2022/09/03 08:05:03;;;;;;;6.75;6.22;;;20.00;97.50;;;;;;5109341;28;20712;-86
2022/09/03 08:07:29;;;;;;;7.97;7.18;;;20.10;97.30;;;;;;5102925;28;20198;-83
2022/09/03 08:09:55;;;;;;;6.72;6.22;;;20.00;98.80;;;;;;5111076;28;20573;-86
2022/09/03 08:12:22;;;;;;;6.88;6.38;;;19.90;99.40;;;;;;5104136;28;20216;-87
2022/09/03 08:14:48;;;;;;;7.32;6.68;;;19.70;99.90;;;;;;5111023;28;20211;-86
2022/09/03 08:17:14;;;;;;;6.50;5.93;;;19.60;99.90;;;;;;5107166;28;20284;-85
2022/09/03 08:19:40;;;;;;;7.20;6.50;;;19.40;99.90;;;;;;5104596;28;20179;-88
2022/09/03 08:22:06;;;;;;;7.20;6.60;;;19.50;99.90;;;;;;5109351;28;20199;-87
2022/09/03 08:24:33;;;;;;;7.97;7.18;;;19.50;99.90;;;;;;5102040;28;20192;-84
2022/09/03 08:26:59;;;;;;;7.80;7.20;;;19.60;99.90;;;;;;5108521;28;20185;-87
2022/09/03 08:29:26;;;;;;;6.65;6.15;;;19.50;99.90;;;;;;5101228;28;20241;-88
2022/09/03 08:31:52;;;;;;;6.70;6.22;;;19.40;99.90;;;;;;5103166;28;20271;-87
2022/09/03 08:34:18;;;;;;;6.15;5.65;;;19.40;99.90;;;;;;5110213;28;20629;-87
2022/09/03 08:36:45;;;;;;;6.47;6.05;;;19.50;99.90;;;;;;5105864;28;20186;-87
2022/09/03 08:39:12;;;;;;;6.63;6.13;;;19.60;99.90;;;;;;5107738;28;20219;-88
2022/09/03 08:41:50;;;;;;;6.90;6.30;;;19.90;99.90;;;;;;5104720;28;20200;-88
2022/09/03 08:44:28;;;;;;;6.97;6.47;;;19.90;99.90;;;;;;5105798;28;20697;-88
2022/09/03 08:47:09;;;;;;;6.85;6.13;;;19.90;99.90;;;;;;5103885;28;20656;-87
2022/09/03 08:49:46;;;;;;;6.32;5.82;;;19.80;99.90;;;;;;5104143;28;20669;-87
2022/09/03 08:52:35;;;;;;;6.82;6.25;;;20.00;99.90;;;;;;5107403;28;20219;-88
2022/09/03 08:55:31;;;;;;;6.30;5.72;;;20.20;99.90;;;;;;5106041;28;20229;-87
2022/09/03 08:58:13;;;;;;;6.22;5.82;;;20.40;99.90;;;;;;5104216;28;20211;-86
2022/09/03 09:01:02;;;;;;;6.03;5.63;;;20.60;99.90;;;;;;5101823;28;20228;-86
2022/09/03 09:04:07;;;;;;;6.43;5.93;;;20.30;99.90;;;;;;5100268;28;20186;-86
2022/09/03 09:06:43;;;;;;;6.82;6.22;;;20.10;99.90;;;;;;5102096;28;20177;-87
2022/09/03 09:09:09;;;;;;;5.82;5.43;;;20.00;99.90;;;;;;5102224;28;20260;-88
2022/09/03 09:12:00;;;;;;;6.50;6.00;;;20.00;99.90;;;;;;5103103;28;20360;-88
2022/09/03 09:14:40;;;;;;;6.63;6.22;;;20.10;99.90;;;;;;5089050;28;20311;-87
2022/09/03 09:17:26;;;;;;;6.22;5.75;;;20.10;99.90;;;;;;5106990;28;20190;-87
2022/09/03 09:20:04;;;;;;;6.20;5.70;;;19.90;99.90;;;;;;5104906;28;20179;-88
2022/09/03 09:22:42;;;;;;;6.03;5.60;;;19.90;99.90;;;;;;5101082;28;20205;-88
2022/09/03 09:25:13;;;;;;;5.70;5.30;;;20.20;99.90;;;;;;5106808;28;20683;-88
2022/09/03 09:28:26;;;;;;;5.55;5.15;;;20.30;99.90;;;;;;5116935;27;20269;-88
2022/09/03 09:30:55;;;;;;;5.18;4.85;;;20.60;99.50;;;;;;5087467;28;20214;-88
2022/09/03 09:33:21;;;;;;;5.05;4.75;;;20.80;99.40;;;;;;5097311;28;20217;-89
2022/09/03 09:35:48;;;;;;;4.82;4.53;;;21.00;96.30;;;;;;5102677;28;20211;-88
2022/09/03 09:38:14;;;;;;;5.10;4.63;;;21.20;93.60;;;;;;5102952;28;20641;-88
2022/09/03 09:40:43;;;;;;;4.85;4.53;;;21.40;94.00;;;;;;5104624;28;20481;-88
2022/09/03 09:43:14;;;;;;;5.05;4.65;;;21.60;93.40;;;;;;5105195;28;20746;-88
2022/09/03 09:45:45;;;;;;;5.68;5.18;;;21.70;94.60;;;;;;5087703;28;20200;-87
2022/09/03 09:48:30;;;;;;;5.32;4.93;;;21.80;95.90;;;;;;5084117;28;20274;-87
2022/09/03 09:51:05;;;;;;;5.20;4.80;;;22.00;95.00;;;;;;5090177;28;20704;-88
2022/09/03 09:53:30;;;;;;;5.07;4.70;;;21.90;93.00;;;;;;5100736;28;20210;-88
2022/09/03 09:55:59;;;;;;;4.68;4.32;;;22.20;91.90;;;;;;5101037;28;20193;-89
2022/09/03 09:58:29;;;;;;;5.32;4.82;;;22.40;88.40;;;;;;5092018;28;20182;-86
2022/09/03 10:00:58;;;;;;;4.57;4.28;;;22.50;87.10;;;;;;5090053;28;20673;-88
2022/09/03 10:03:24;;;;;;;4.78;4.47;;;22.70;87.10;;;;;;5085104;28;20191;-87
2022/09/03 10:09:07;;;;;;;4.60;4.20;;;22.70;86.90;;;;;;5103470;28;20206;-87
2022/09/03 10:11:38;;;;;;;4.75;4.38;;;22.90;87.80;;;;;;5103410;28;20296;-88
2022/09/03 10:14:14;;;;;;;4.60;4.30;;;23.30;88.10;;;;;;5098557;28;20198;-87
2022/09/03 10:16:47;;;;;;;4.82;4.43;;;23.30;90.10;;;;;;5096099;28;20199;-86
2022/09/03 10:19:19;;;;;;;4.75;4.45;;;23.40;86.90;;;;;;5104025;28;20202;-86
2022/09/03 10:21:57;;;;;;;4.82;4.53;;;23.50;86.10;;;;;;5111616;28;20266;-86
2022/09/03 10:24:32;;;;;;;4.97;4.68;;;23.60;86.60;;;;;;5127092;27;20293;-86
2022/09/03 10:26:58;;;;;;;5.10;4.60;;;23.50;83.10;;;;;;5104523;28;20565;-87
2022/09/03 10:29:28;;;;;;;5.13;4.75;;;23.60;88.40;;;;;;5095956;28;20188;-86
2022/09/03 10:32:24;;;;;;;5.18;4.78;;;23.50;88.70;;;;;;5098478;28;20206;-87
2022/09/03 10:35:34;;;;;;;5.45;4.95;;;23.30;88.00;;;;;;5091417;28;20214;-86
2022/09/03 10:38:18;;;;;;;5.20;4.90;;;23.30;89.60;;;;;;5101968;28;20236;-85
2022/09/03 10:41:18;;;;;;;4.38;4.13;;;23.10;90.50;;;;;;5104950;28;20175;-86
2022/09/03 10:44:15;;;;;;;4.88;4.57;;;23.00;92.10;;;;;;5107148;28;20305;-87
2022/09/03 10:46:49;;;;;;;5.60;5.20;;;23.10;90.50;;;;;;5101642;28;20191;-87
2022/09/03 10:49:37;;;;;;;5.45;4.95;;;23.00;90.70;;;;;;5103500;28;20217;-87
2022/09/03 10:52:25;;;;;;;5.32;4.82;;;22.80;91.10;;;;;;5101436;28;20234;-87
2022/09/03 10:55:16;;;;;;;5.50;5.10;;;22.80;92.70;;;;;;5105032;28;20210;-86
2022/09/03 10:58:11;;;;;;;5.07;4.57;;;22.80;94.60;;;;;;5099087;28;20556;-87
2022/09/03 11:00:45;;;;;;;6.43;5.80;;;22.80;91.40;;;;;;5089126;28;20221;-87
2022/09/03 11:03:29;;;;;;;6.63;6.03;;;22.80;95.30;;;;;;5102271;28;20235;-87
2022/09/03 11:06:10;;;;;;;5.90;5.30;;;22.80;93.50;;;;;;5113449;28;20212;-86
2022/09/03 11:08:58;;;;;;;12.30;7.80;;;22.90;94.40;;;;;;5109268;28;20661;-87
2022/09/03 11:11:31;;;;;;;12.40;7.43;;;23.20;95.00;;;;;;5104634;28;20206;-88
2022/09/03 11:14:08;;;;;;;6.43;5.65;;;23.20;92.50;;;;;;5105603;28;20511;-87
2022/09/03 11:16:42;;;;;;;6.40;5.80;;;23.40;90.30;;;;;;5102096;28;20313;-87
2022/09/03 11:19:14;;;;;;;5.95;5.28;;;23.60;92.00;;;;;;5104526;28;20209;-87
2022/09/03 11:21:41;;;;;;;6.03;5.43;;;23.60;91.10;;;;;;5103112;28;20198;-87
2022/09/03 11:24:14;;;;;;;5.65;5.25;;;23.60;87.50;;;;;;5101997;28;20209;-87
2022/09/03 11:26:44;;;;;;;6.18;5.68;;;23.60;85.60;;;;;;5101889;28;20182;-87
2022/09/03 11:29:20;;;;;;;5.90;5.47;;;23.70;86.50;;;;;;5098357;28;20183;-89
2022/09/03 11:32:02;;;;;;;6.40;5.80;;;23.40;87.30;;;;;;5092269;28;20213;-86
2022/09/03 11:34:44;;;;;;;6.07;5.57;;;23.30;89.90;;;;;;5103011;28;20238;-85
2022/09/03 11:37:27;;;;;;;5.75;5.25;;;23.30;88.90;;;;;;5097934;28;20175;-87
2022/09/03 11:40:05;;;;;;;7.03;6.43;;;23.70;85.70;;;;;;5102301;28;20282;-86
2022/09/03 11:42:35;;;;;;;5.55;5.15;;;23.80;85.20;;;;;;5100475;28;20290;-86
2022/09/03 11:45:19;;;;;;;6.07;5.68;;;24.00;83.90;;;;;;5100248;28;20191;-87
2022/09/03 11:47:49;;;;;;;6.65;6.15;;;24.30;81.40;;;;;;5099849;28;20183;-86
2022/09/03 11:50:24;;;;;;;5.68;5.28;;;24.50;82.90;;;;;;5094987;28;20183;-86
2022/09/03 11:53:06;;;;;;;5.28;4.97;;;24.90;83.10;;;;;;5102531;28;20278;-86
2022/09/03 11:55:48;;;;;;;5.60;5.30;;;25.30;79.00;;;;;;5102467;28;20187;-86
2022/09/03 11:58:36;;;;;;;6.32;5.93;;;25.80;75.90;;;;;;5094380;28;20653;-86
2022/09/03 12:01:07;;;;;;;6.20;5.75;;;25.80;76.70;;;;;;5098036;28;20210;-86
2022/09/03 12:03:47;;;;;;;6.18;5.78;;;25.20;80.30;;;;;;5097843;28;20197;-85
2022/09/03 12:06:45;;;;;;;6.55;6.05;;;25.50;77.90;;;;;;5089793;28;20202;-86
2022/09/03 12:09:38;;;;;;;5.78;5.47;;;25.80;78.50;;;;;;5105231;28;20198;-86
2022/09/03 12:12:09;;;;;;;5.95;5.55;;;26.40;72.70;;;;;;5086084;28;20203;-85
2022/09/03 12:14:48;;;;;;;6.07;5.68;;;26.70;69.30;;;;;;5087550;28;20698;-86
2022/09/03 12:17:20;;;;;;;6.50;6.00;;;26.80;70.50;;;;;;5090659;28;20190;-85
2022/09/03 12:19:54;;;;;;;6.13;5.65;;;27.10;66.80;;;;;;5093074;28;20211;-85
2022/09/03 12:22:22;;;;;;;9.38;5.80;;;27.40;68.40;;;;;;5091410;28;20209;-85
2022/09/03 12:24:49;;;;;;;5.85;5.45;;;27.90;65.00;;;;;;5094751;28;20187;-85
2022/09/03 12:27:23;;;;;;;5.85;5.32;;;27.90;64.20;;;;;;5099632;28;20190;-86
2022/09/03 12:30:00;;;;;;;5.13;4.72;;;27.70;62.50;;;;;;5107111;28;20213;-83
2022/09/03 12:32:31;;;;;;;4.60;4.40;;;26.70;65.10;;;;;;5116080;28;20586;-83
2022/09/03 12:34:57;;;;;;;5.35;5.05;;;26.30;64.70;;;;;;5104159;28;20564;-87
2022/09/03 12:37:25;;;;;;;5.30;4.90;;;25.90;71.80;;;;;;5097412;28;20195;-87
2022/09/03 12:39:52;;;;;;;5.53;5.00;;;25.70;69.50;;;;;;5097000;28;20238;-87
2022/09/03 12:42:27;;;;;;;5.82;5.20;;;25.80;69.90;;;;;;5098424;28;20218;-87
2022/09/03 12:44:53;;;;;;;6.13;4.80;;;25.90;69.70;;;;;;5099230;28;20217;-84
2022/09/03 12:47:23;;;;;;;4.90;4.60;;;26.10;65.70;;;;;;5104307;28;20194;-87
2022/09/03 12:49:57;;;;;;;4.78;4.47;;;25.60;64.80;;;;;;5090752;28;20567;-87
2022/09/03 12:52:32;;;;;;;4.95;4.65;;;25.80;64.50;;;;;;5102785;28;20669;-86
2022/09/03 12:55:00;;;;;;;4.82;4.53;;;25.30;67.70;;;;;;5099387;28;20248;-85
2022/09/03 12:57:38;;;;;;;5.32;4.82;;;24.90;70.90;;;;;;5095812;28;20187;-88
2022/09/03 13:00:07;;;;;;;4.57;4.28;;;24.60;72.60;;;;;;5092643;28;20167;-83
2022/09/03 13:02:55;;;;;;;5.22;4.80;;;24.40;74.10;;;;;;5100239;28;20545;-86
2022/09/03 13:05:27;;;;;;;5.68;5.20;;;24.50;76.80;;;;;;5097234;28;20638;-86
2022/09/03 13:08:02;;;;;;;5.18;4.75;;;24.50;74.70;;;;;;5098229;28;20179;-87
2022/09/03 13:13:07;;;;;;;5.00;4.60;;;25.00;75.30;;;;;;5087144;22;20295;-86
2022/09/03 13:15:33;;;;;;;4.88;4.50;;;25.50;69.90;;;;;;5086035;28;20229;-85
2022/09/03 13:18:07;;;;;;;4.63;4.22;;;25.90;70.20;;;;;;5086544;28;20182;-85
2022/09/03 13:20:52;;;;;;;3.30;3.10;;;26.20;68.90;;;;;;5091720;28;20167;-86